Time;durP1;ratioP1;P1;durP2;ratioP2;P2;SDS_P1;SDS_P2;PMS_P1;PMS_P2;Temp;Humidity;BMP_temperature;BMP_pressure;BME280_temperature;BME280_humidity;BME280_pressure;Samples;Min_cycle;Max_cycle;Signal;HPM_P1;HPM_P2
2021/11/23 00:05:11;;;;;;;18.90;13.65;;;;;;;;;;21247728;28;20051;-57
2021/11/23 00:15:13;;;;;;;19.42;13.10;;;;;;;;;;21248278;28;20443;-57
2021/11/23 00:25:16;;;;;;;22.50;13.63;;;;;;;;;;21246146;28;20055;-57
2021/11/23 00:35:18;;;;;;;18.58;13.18;;;;;;;;;;21246744;28;20055;-58
2021/11/23 00:45:20;;;;;;;21.35;14.05;;;;;;;;;;21261479;27;20518;-56
2021/11/23 00:55:23;;;;;;;21.65;14.10;;;;;;;;;;21261176;27;20058;-56
2021/11/23 01:05:25;;;;;;;20.45;13.40;;;;;;;;;;21261690;27;20512;-56
2021/11/23 01:15:27;;;;;;;18.90;13.15;;;;;;;;;;21260119;27;20046;-57
2021/11/23 01:25:30;;;;;;;21.15;14.75;;;;;;;;;;21250450;27;20126;-56
2021/11/23 01:35:33;;;;;;;21.67;14.15;;;;;;;;;;21258810;27;20051;-56
2021/11/23 01:45:37;;;;;;;21.40;13.88;;;;;;;;;;21257226;27;20046;-56
2021/11/23 01:55:40;;;;;;;22.90;15.82;;;;;;;;;;21256365;27;20082;-57
2021/11/23 02:05:44;;;;;;;24.95;17.20;;;;;;;;;;21256154;27;20043;-57
2021/11/23 02:15:46;;;;;;;22.38;17.02;;;;;;;;;;21256410;27;20051;-56
2021/11/23 03:00:31;;;;;;;24.65;15.40;;;;;;;;;;21242153;27;20047;-56
2021/11/23 03:10:34;;;;;;;26.83;17.13;;;;;;;;;;21250968;27;20111;-57
2021/11/23 03:20:37;;;;;;;27.63;18.52;;;;;;;;;;21250237;27;20043;-57
2021/11/23 03:30:41;;;;;;;21.58;13.77;;;;;;;;;;21249163;27;20039;-57
2021/11/23 03:40:46;;;;;;;15.13;9.63;;;;;;;;;;21230824;27;20047;-56
2021/11/23 03:50:52;;;;;;;10.85;8.27;;;;;;;;;;21231078;27;20043;-56
2021/11/23 04:00:57;;;;;;;10.00;7.03;;;;;;;;;;21247699;28;20051;-57
2021/11/23 04:11:00;;;;;;;10.48;6.28;;;;;;;;;;21247225;27;20051;-56
2021/11/23 04:21:04;;;;;;;11.75;5.38;;;;;;;;;;21264237;27;20426;-56
2021/11/23 04:31:07;;;;;;;4.53;2.67;;;;;;;;;;21263208;27;20403;-56
2021/11/23 04:41:10;;;;;;;4.25;2.53;;;;;;;;;;21262202;27;20047;-57
2021/11/23 04:51:14;;;;;;;7.93;2.80;;;;;;;;;;21261756;27;20047;-56
2021/11/23 05:01:18;;;;;;;5.68;3.72;;;;;;;;;;21261179;27;20081;-56
2021/11/23 05:11:25;;;;;;;7.22;4.05;;;;;;;;;;21260835;27;20468;-55
2021/11/23 05:21:27;;;;;;;5.65;3.85;;;;;;;;;;21260029;27;20070;-57
2021/11/23 05:31:30;;;;;;;6.78;4.30;;;;;;;;;;21257169;27;20198;-56
2021/11/23 05:41:33;;;;;;;5.05;4.15;;;;;;;;;;21257792;27;20101;-56
2021/11/23 05:51:36;;;;;;;5.68;3.88;;;;;;;;;;21257156;27;20520;-56
2021/11/23 06:01:39;;;;;;;4.32;2.88;;;;;;;;;;21237809;27;20388;-56
2021/11/23 06:11:42;;;;;;;5.28;2.50;;;;;;;;;;21255105;27;20141;-57
2021/11/23 06:21:45;;;;;;;4.00;2.13;;;;;;;;;;21236000;27;20548;-55
2021/11/23 06:31:48;;;;;;;4.68;2.10;;;;;;;;;;21252764;27;20050;-56
2021/11/23 06:41:51;;;;;;;3.03;1.90;;;;;;;;;;21252015;27;20043;-57
2021/11/23 06:51:54;;;;;;;4.40;2.50;;;;;;;;;;21252002;27;20469;-56
2021/11/23 07:01:58;;;;;;;4.45;2.20;;;;;;;;;;21250529;27;20047;-57
2021/11/23 07:12:00;;;;;;;3.55;2.28;;;;;;;;;;21250360;27;20059;-58
2021/11/23 07:22:04;;;;;;;3.70;2.08;;;;;;;;;;21248783;27;20051;-56
2021/11/23 07:32:07;;;;;;;2.97;2.00;;;;;;;;;;21247848;27;20547;-56
2021/11/23 07:42:11;;;;;;;4.07;2.47;;;;;;;;;;21247971;27;20051;-56
2021/11/23 07:52:16;;;;;;;6.35;2.55;;;;;;;;;;21247715;27;20517;-56
2021/11/23 08:02:18;;;;;;;6.57;2.40;;;;;;;;;;21246611;28;20062;-56
2021/11/23 08:12:20;;;;;;;7.63;6.10;;;;;;;;;;21246511;28;20051;-55
2021/11/23 08:22:24;;;;;;;12.40;7.00;;;;;;;;;;21246087;28;20108;-56
2021/11/23 08:32:26;;;;;;;4.47;2.90;;;;;;;;;;21246171;28;20480;-55
2021/11/23 08:42:29;;;;;;;6.22;4.82;;;;;;;;;;21246435;28;20099;-56
2021/11/23 08:52:32;;;;;;;8.98;5.22;;;;;;;;;;21244902;28;20104;-55
2021/11/23 09:02:41;;;;;;;7.13;5.35;;;;;;;;;;21254023;27;20495;-56
2021/11/23 09:12:44;;;;;;;7.90;3.30;;;;;;;;;;21259509;27;20043;-56
2021/11/23 09:22:46;;;;;;;4.28;3.58;;;;;;;;;;21259444;27;20043;-55
2021/11/23 09:32:50;;;;;;;10.30;5.85;;;;;;;;;;21240837;27;20053;-57
2021/11/23 09:42:55;;;;;;;5.93;5.15;;;;;;;;;;21257144;27;20055;-57
2021/11/23 09:52:57;;;;;;;5.18;3.55;;;;;;;;;;21256871;27;20046;-56
2021/11/23 10:03:09;;;;;;;4.60;3.90;;;;;;;;;;21200652;27;20110;-56
2021/11/23 10:13:13;;;;;;;4.82;3.10;;;;;;;;;;21152061;28;20139;-57
2021/11/23 10:23:16;;;;;;;4.38;3.03;;;;;;;;;;21169713;28;20510;-56
2021/11/23 10:33:21;;;;;;;6.43;3.67;;;;;;;;;;21167949;28;20518;-57
2021/11/23 10:43:24;;;;;;;4.95;3.80;;;;;;;;;;21149576;28;20483;-58
2021/11/23 10:53:28;;;;;;;8.82;4.78;;;;;;;;;;21165812;28;20416;-57
2021/11/23 11:03:31;;;;;;;7.28;5.68;;;;;;;;;;21224444;27;20055;-58
2021/11/23 11:13:35;;;;;;;7.38;5.45;;;;;;;;;;21184428;27;20090;-57
2021/11/23 11:23:42;;;;;;;8.85;5.90;;;;;;;;;;21162795;28;20054;-60
2021/11/23 11:33:45;;;;;;;8.85;7.18;;;;;;;;;;21163415;28;20054;-71
2021/11/23 11:44:05;;;;;;;10.10;6.28;;;;;;;;;;21197544;27;20130;-64
2021/11/23 11:54:21;;;;;;;7.03;5.50;;;;;;;;;;21188467;27;20089;-58
2021/11/23 12:04:27;;;;;;;10.25;5.97;;;;;;;;;;21161967;28;20552;-60
2021/11/23 12:14:34;;;;;;;8.02;6.72;;;;;;;;;;21162024;28;20450;-60
2021/11/23 12:24:41;;;;;;;7.72;5.72;;;;;;;;;;21160085;28;20503;-61
2021/11/23 12:34:54;;;;;;;7.30;5.18;;;;;;;;;;21188235;27;20082;-62
2021/11/23 12:44:58;;;;;;;5.23;4.07;;;;;;;;;;21185224;27;20154;-61
2021/11/23 12:55:03;;;;;;;8.63;4.78;;;;;;;;;;21173876;28;20056;-56
2021/11/23 13:05:06;;;;;;;5.30;4.20;;;;;;;;;;21102275;28;20086;-60
2021/11/23 13:15:10;;;;;;;6.32;5.47;;;;;;;;;;21089756;28;20083;-60
2021/11/23 13:25:15;;;;;;;11.38;6.05;;;;;;;;;;21089761;28;20480;-59
2021/11/23 13:35:19;;;;;;;6.40;4.15;;;;;;;;;;21088307;28;20054;-59
2021/11/23 13:45:25;;;;;;;8.23;4.57;;;;;;;;;;21086627;28;20413;-58
2021/11/23 13:55:28;;;;;;;6.07;3.72;;;;;;;;;;21086845;28;20051;-58
2021/11/23 14:05:50;;;;;;;6.80;3.88;;;;;;;;;;21161932;28;20054;-60
2021/11/23 14:15:57;;;;;;;6.47;4.10;;;;;;;;;;21169765;28;20381;-59
2021/11/23 14:26:02;;;;;;;8.27;5.32;;;;;;;;;;21168103;28;20128;-59
2021/11/23 14:36:04;;;;;;;5.60;3.83;;;;;;;;;;21168077;28;20112;-59
2021/11/23 14:46:09;;;;;;;4.93;3.47;;;;;;;;;;21149617;28;20075;-58
2021/11/23 14:56:11;;;;;;;4.47;3.60;;;;;;;;;;21167050;28;20074;-59
2021/11/23 15:06:13;;;;;;;6.88;4.20;;;;;;;;;;21083625;28;20058;-59
2021/11/23 15:16:15;;;;;;;9.65;6.93;;;;;;;;;;21080279;28;20117;-59
2021/11/23 15:26:17;;;;;;;9.68;7.10;;;;;;;;;;21079974;28;20484;-60
2021/11/23 15:36:20;;;;;;;6.63;4.72;;;;;;;;;;21061412;28;20412;-60
2021/11/23 15:46:22;;;;;;;8.63;4.85;;;;;;;;;;21078380;28;20495;-60
2021/11/23 15:56:24;;;;;;;8.00;4.13;;;;;;;;;;21078358;28;20503;-60
2021/11/23 16:06:29;;;;;;;11.10;4.32;;;;;;;;;;21077003;28;20507;-58
2021/11/23 16:16:31;;;;;;;6.47;3.90;;;;;;;;;;21094039;28;20058;-59
2021/11/23 16:26:34;;;;;;;5.28;3.75;;;;;;;;;;21093716;28;20044;-60
2021/11/23 16:36:37;;;;;;;6.93;3.28;;;;;;;;;;21070829;28;20054;-57
2021/11/23 16:46:40;;;;;;;6.13;4.57;;;;;;;;;;21008217;28;20052;-61
2021/11/23 16:56:42;;;;;;;7.03;3.17;;;;;;;;;;21008973;28;20052;-60
2021/11/23 17:06:53;;;;;;;11.98;4.53;;;;;;;;;;21091518;28;20054;-61
2021/11/23 17:17:03;;;;;;;15.43;4.43;;;;;;;;;;21090932;28;20488;-61
2021/11/23 17:27:08;;;;;;;8.05;4.47;;;;;;;;;;21070551;28;20119;-61
2021/11/23 17:37:10;;;;;;;6.38;3.90;;;;;;;;;;21089342;28;20070;-61
2021/11/23 17:47:28;;;;;;;8.43;3.78;;;;;;;;;;21069794;28;20060;-60
2021/11/23 17:57:31;;;;;;;5.65;3.67;;;;;;;;;;21069932;28;20393;-60
2021/11/23 18:07:33;;;;;;;4.35;2.28;;;;;;;;;;21086196;28;20070;-61
2021/11/23 18:17:35;;;;;;;14.32;7.10;;;;;;;;;;21085422;28;20060;-61
2021/11/23 18:27:37;;;;;;;6.55;2.85;;;;;;;;;;21083916;28;20040;-60
2021/11/23 18:37:42;;;;;;;3.72;1.90;;;;;;;;;;21064566;28;20502;-60
2021/11/23 18:47:44;;;;;;;6.00;1.98;;;;;;;;;;21064157;28;20052;-60
2021/11/23 18:57:47;;;;;;;4.70;2.60;;;;;;;;;;21082088;28;20081;-61
2021/11/23 19:07:49;;;;;;;3.95;2.47;;;;;;;;;;21086712;28;20481;-54
2021/11/23 19:17:51;;;;;;;3.85;2.40;;;;;;;;;;21132789;28;20048;-57
2021/11/23 19:27:53;;;;;;;6.85;3.40;;;;;;;;;;21121143;28;20569;-59
2021/11/23 19:37:55;;;;;;;5.93;3.53;;;;;;;;;;21079946;28;20056;-59
2021/11/23 19:47:57;;;;;;;6.47;4.10;;;;;;;;;;21089644;28;20044;-62
2021/11/23 19:58:01;;;;;;;7.68;4.28;;;;;;;;;;21077974;28;20087;-61
2021/11/23 20:08:04;;;;;;;10.93;6.05;;;;;;;;;;21059128;28;20055;-64
2021/11/23 20:18:07;;;;;;;7.82;5.47;;;;;;;;;;21077481;28;20075;-61
2021/11/23 20:28:10;;;;;;;9.82;5.18;;;;;;;;;;21077067;28;20127;-62
2021/11/23 20:38:13;;;;;;;21.58;5.90;;;;;;;;;;21058388;28;20058;-62
2021/11/23 20:48:17;;;;;;;11.00;5.85;;;;;;;;;;21076924;28;20451;-61
2021/11/23 20:58:19;;;;;;;10.18;6.82;;;;;;;;;;21066041;28;20096;-61
2021/11/23 21:08:22;;;;;;;14.00;7.88;;;;;;;;;;21091280;28;20060;-66
2021/11/23 21:18:24;;;;;;;10.18;5.40;;;;;;;;;;21090457;28;20047;-63
2021/11/23 21:28:26;;;;;;;7.53;5.28;;;;;;;;;;21089661;28;20127;-61
2021/11/23 21:38:29;;;;;;;6.40;5.10;;;;;;;;;;21089792;28;20052;-60
2021/11/23 21:48:32;;;;;;;4.38;3.35;;;;;;;;;;21071274;28;20058;-61
2021/11/23 21:58:34;;;;;;;6.90;4.72;;;;;;;;;;21087431;28;20100;-62
2021/11/23 22:08:36;;;;;;;5.38;3.83;;;;;;;;;;21085988;28;20044;-64
2021/11/23 22:18:39;;;;;;;5.78;4.13;;;;;;;;;;21067738;28;20044;-63
2021/11/23 22:28:43;;;;;;;6.22;4.55;;;;;;;;;;21084899;28;20059;-60
2021/11/23 22:38:46;;;;;;;7.35;4.65;;;;;;;;;;21084635;28;20504;-61
2021/11/23 22:48:48;;;;;;;6.57;5.00;;;;;;;;;;21065784;28;20048;-63
2021/11/23 22:58:50;;;;;;;8.80;6.00;;;;;;;;;;21082355;28;20052;-60
2021/11/23 23:08:52;;;;;;;12.00;9.30;;;;;;;;;;21081714;28;20476;-62
2021/11/23 23:18:54;;;;;;;8.27;7.05;;;;;;;;;;21080913;28;20484;-60
2021/11/23 23:29:00;;;;;;;10.95;7.65;;;;;;;;;;21081009;28;20040;-61
2021/11/23 23:39:03;;;;;;;10.07;7.05;;;;;;;;;;21079615;28;20048;-61
2021/11/23 23:49:05;;;;;;;10.98;7.40;;;;;;;;;;21081107;28;20421;-62
2021/11/23 23:59:07;;;;;;;7.80;6.38;;;;;;;;;;21079268;28;20500;-62
